ETI21B / SE-RMO 7700 Squawk Report (21st of March, 2019)

Time Lat Lon Altitude Heading Speed Vertical Rate
2019-03-21 12:13:40 GMT 49.501087 11.061896 475 97 147 -832
2019-03-21 12:13:28 GMT 49.502022 11.050613 625 96 148 -1024
2019-03-21 12:13:23 GMT 49.502392 11.044600 850 97 151 -960
2019-03-21 12:13:17 GMT 49.502998 11.038587 850 97 151 -960
2019-03-21 12:13:12 GMT 49.503418 11.033465 775 97 153 -832
2019-03-21 12:13:08 GMT 49.503788 11.027378 1,050 97 153 -832
2019-03-21 12:13:01 GMT 49.504208 11.022702 1,125 98 156 -704
2019-03-21 12:12:54 GMT 49.504906 11.015130 1,225 98 157 -640
2019-03-21 12:12:44 GMT 49.505978 11.002065 1,350 98 158 -704
2019-03-21 12:12:37 GMT 49.506302 10.997166 1,275 98 158 -832
2019-03-21 12:12:31 GMT 49.508816 10.971408 1,425 98 162 -832
2019-03-21 12:12:14 GMT 49.509796 10.962797 1,525 98 177 -960
2019-03-21 12:12:08 GMT 49.510120 10.957229 1,675 98 177 -960
2019-03-21 12:12:01 GMT 49.510120 10.957229 1,875 98 177 -960
2019-03-21 12:11:56 GMT 49.510307 10.952330 1,800 98 177 -960
2019-03-21 12:11:48 GMT 49.511608 10.942680 1,975 98 183 -1024
2019-03-21 12:11:37 GMT 49.512913 10.931100 2,100 98 183 -1024
2019-03-21 12:11:26 GMT 49.514404 10.917515 2,400 98 183 -1024
2019-03-21 12:11:15 GMT 49.515800 10.903634 2,425 96 181 -1088
2019-03-21 12:11:09 GMT 49.517288 10.894800 2,700 96 181 -1088
2019-03-21 12:11:02 GMT 49.518314 10.885595 2,825 95 179 -1024
2019-03-21 12:10:54 GMT 49.519104 10.875203 2,800 93 176 -960
2019-03-21 12:10:49 GMT 49.519478 10.869487 3,050 93 176 -960
2019-03-21 12:10:43 GMT 49.519989 10.860728 2,975 93 176 -640
2019-03-21 12:10:36 GMT 49.520313 10.853304 3,050 93 176 -640
2019-03-21 12:10:30 GMT 49.521198 10.845213 3,150 90 180 -256
2019-03-21 12:10:24 GMT 49.521481 10.836305 3,325 90 180 -64
2019-03-21 12:10:15 GMT 49.521805 10.824725 3,650 90 180 -64
2019-03-21 12:10:08 GMT 49.524506 10.814036 3,500 73 152 -256
2019-03-21 12:09:58 GMT 49.525482 10.798076 3,650 73 152 -256
2019-03-21 12:09:53 GMT 49.527298 10.784417 3,675 73 152 -256
2019-03-21 12:09:40 GMT 49.528694 10.770684 3,675 73 152 -256
2019-03-21 12:09:27 GMT 49.529022 10.756209 3,650 67 155 -448
2019-03-21 12:09:21 GMT 49.528694 10.749528 3,575 65 157 -640
2019-03-21 12:09:10 GMT 49.528416 10.736166 3,700 58 168 -832
2019-03-21 12:09:01 GMT 49.527111 10.728372 3,675 32 223 -2624
2019-03-21 12:08:49 GMT 49.522179 10.715530 3,750 53 185 -384
2019-03-21 12:08:36 GMT 49.520084 10.700312 3,975 32 223 -2624
2019-03-21 12:08:30 GMT 49.512680 10.677894 4,200 32 223 -2624
2019-03-21 12:08:18 GMT 49.512680 10.677894 4,225 32 223 -2624
2019-03-21 12:08:09 GMT 49.507187 10.670100 4,275 32 223 -2624
2019-03-21 12:07:54 GMT 49.494713 10.658297 4,450 32 223 -2624
2019-03-21 12:07:48 GMT 49.488380 10.652284 4,875 32 223 -2624
2019-03-21 12:07:35 GMT 49.477814 10.641966 5,275 32 255 -2688
2019-03-21 12:07:23 GMT 49.468597 10.633578 6,225 32 255 -2688
2019-03-21 12:07:05 GMT 49.452999 10.618435 6,650 33 270 -2624
2019-03-21 12:06:59 GMT 49.445786 10.612125 7,250 33 270 -2624
2019-03-21 12:06:54 GMT 49.432098 10.599283 7,850 35 272 -2496
2019-03-21 12:06:45 GMT 49.425117 10.592627 7,325 36 276 -2560
2019-03-21 12:06:38 GMT 49.425117 10.592627 7,750 36 285 -2560
2019-03-21 12:06:31 GMT 49.417900 10.584532 8,475 36 285 -2560
2019-03-21 12:06:22 GMT 49.409195 10.573618 8,525 36 289 -2624
2019-03-21 12:06:10 GMT 49.397511 10.560825 8,975 36 294 -2624
2019-03-21 12:05:57 GMT 49.383591 10.543406 9,350 35 303 -2560
2019-03-21 12:05:51 GMT 49.376282 10.535021 9,875 35 308 -2688
2019-03-21 12:05:35 GMT 49.361198 10.519409 10,275 36 324 -2752
2019-03-21 12:05:27 GMT 49.349609 10.506182 12,875 36 332 -2688
2019-03-21 12:05:21 GMT 49.343697 10.499316 11,200 36 332 -2688
2019-03-21 12:05:08 GMT 49.328381 10.482403 11,675 36 352 -2368
2019-03-21 12:04:54 GMT 49.311623 10.463321 12,725 35 357 -2112
2019-03-21 12:04:50 GMT 49.305290 10.456599 12,875 35 363 -2176
2019-03-21 12:04:34 GMT 49.284107 10.433181 13,450 35 375 -2304
2019-03-21 12:04:29 GMT 49.275917 10.424508 13,525 35 380 -2048
2019-03-21 12:04:19 GMT 49.264698 10.412220 14,050 35 380 -2048
2019-03-21 12:04:14 GMT 49.256413 10.403330 14,150 35 386 -1216
2019-03-21 12:03:56 GMT 49.232018 10.376587 14,400 35 386 -1216
2019-03-21 12:03:50 GMT 49.223404 10.367191 14,750 35 386 -1216
2019-03-21 12:03:35 GMT 49.198917 10.341604 15,450 36 398 -1280
2019-03-21 12:03:25 GMT 49.166286 10.305031 15,450 213 394 0
2019-03-21 12:03:13 GMT 49.166286 10.305031 15,675 213 394 0
2019-03-21 12:02:58 GMT 49.145290 10.282336 15,925 213 394 0
2019-03-21 12:02:51 GMT 49.132114 10.267736 16,225 35 387 -1280
2019-03-21 12:02:35 GMT 49.109676 10.243378 16,750 35 387 -1280
2019-03-21 12:02:28 GMT 49.084820 10.216924 16,700 35 385 -1280
2019-03-21 12:02:17 GMT 49.084820 10.216924 16,950 35 385 -1280
2019-03-21 12:02:04 GMT 49.066525 10.195891 17,175 35 385 -1280
2019-03-21 12:01:56 GMT 49.038593 10.165534 17,450 35 385 -1280
2019-03-21 12:01:45 GMT 49.038593 10.165534 17,650 35 385 -1280
2019-03-21 12:01:30 GMT 49.016201 10.141682 17,875 35 385 -1280
2019-03-21 12:01:18 GMT 48.996418 10.120721 18,175 35 385 -1280
2019-03-21 12:01:09 GMT 48.984917 10.107783 18,400 35 385 -1280
2019-03-21 12:00:57 GMT 48.967506 10.088413 18,600 35 385 -1280
2019-03-21 12:00:44 GMT 48.950096 10.069403 19,200 213 394 0
2019-03-21 12:00:33 GMT 48.932594 10.050466 19,150 34 378 -1344
2019-03-21 12:00:23 GMT 48.916302 10.033192 19,400 34 378 -1344
2019-03-21 12:00:11 GMT 48.902103 10.017074 19,675 34 378 -1344
2019-03-21 11:59:58 GMT 48.882175 9.995390 20,125 34 378 -1344
2019-03-21 11:59:44 GMT 48.862019 9.974429 20,175 35 366 -1024
2019-03-21 11:59:39 GMT 48.854897 9.966985 20,375 35 366 -1024
2019-03-21 11:59:23 GMT 48.810814 9.920871 20,700 35 366 -1024
2019-03-21 11:59:08 GMT 48.810814 9.920871 20,900 35 366 -1024
2019-03-21 11:59:04 GMT 48.800480 9.910897 21,150 35 366 -1024
2019-03-21 11:58:50 GMT 48.785210 9.893478 21,425 35 366 -1024
2019-03-21 11:58:41 GMT 48.770218 9.876998 21,625 35 366 -1024
2019-03-21 11:58:28 GMT 48.738892 9.842521 21,875 35 366 -1024
2019-03-21 11:58:17 GMT 48.738892 9.842521 22,225 35 366 -1024
2019-03-21 11:57:15 GMT 48.642014 9.739018 23,250 213 394 0
2019-03-21 11:57:07 GMT 48.642014 9.739018 23,475 34 366 -768
2019-03-21 11:56:55 GMT 48.623905 9.719792 23,625 213 394 0
2019-03-21 11:56:41 GMT 48.603516 9.698832 23,650 213 394 0
2019-03-21 11:56:33 GMT 48.594021 9.688496 23,825 213 394 0
2019-03-21 11:56:21 GMT 48.576981 9.670932 24,075 213 394 0
2019-03-21 11:56:11 GMT 48.563992 9.656621 24,100 32 373 -704
2019-03-21 11:56:00 GMT 48.547188 9.636817 24,275 32 373 -704
2019-03-21 11:55:48 GMT 48.509621 9.596702 24,425 33 378 -1260
2019-03-21 11:55:34 GMT 48.509621 9.596702 24,550 31 382 -704
2019-03-21 11:55:25 GMT 48.497704 9.585933 24,775 31 382 -704
2019-03-21 11:55:13 GMT 48.478802 9.571911 24,875 30 370 -1680
2019-03-21 11:54:58 GMT 48.438023 9.532302 25,050 32 380 -2100
2019-03-21 11:54:46 GMT 48.438023 9.532302 25,075 32 380 -2100
2019-03-21 11:54:39 GMT 48.427593 9.521822 25,275 37 387 -1620
2019-03-21 11:54:25 GMT 48.409019 9.502234 25,575 41 376 -1320
2019-03-21 11:54:19 GMT 48.382206 9.464216 25,950 40 367 -1500
2019-03-21 11:54:06 GMT 48.382206 9.464216 26,325 40 367 -1500
2019-03-21 11:53:51 GMT 48.372288 9.452723 26,725 44 384 -2820
2019-03-21 11:53:37 GMT 48.353954 9.428095 27,075 42 365 -1800
2019-03-21 11:53:27 GMT 48.342030 9.412299 27,475 39 365 -1140
2019-03-21 11:53:17 GMT 48.329147 9.393501 28,250 39 343 -2112
2019-03-21 11:53:03 GMT 48.310638 9.373764 28,350 41 337 0
2019-03-21 11:52:51 GMT 48.287006 9.350377 28,600 43 324 -900
2019-03-21 11:52:44 GMT 48.264896 9.319370 29,075 43 324 -900
2019-03-21 11:52:34 GMT 48.264896 9.319370 29,400 49 323 -300
2019-03-21 11:52:21 GMT 48.245296 9.286639 29,725 56 310 -120
2019-03-21 11:52:07 GMT 48.245296 9.286639 30,000 61 317 -120
2019-03-21 11:51:54 GMT 48.234280 9.262878 30,000 84 332 -480
2019-03-21 11:51:43 GMT 48.230766 9.238484 30,025 98 330 -720
2019-03-21 11:51:27 GMT 48.234211 9.202074 30,100 128 341 -960
2019-03-21 11:51:17 GMT 48.249020 9.138601 30,150 213 394 0
2019-03-21 11:51:09 GMT 48.260193 9.136433 30,375 162 362 -720
2019-03-21 11:51:03 GMT 48.268990 9.135276 30,525 182 385 -360
2019-03-21 11:50:48 GMT 48.297714 9.139469 30,675 197 364 -60
2019-03-21 11:50:41 GMT 48.307816 9.144528 30,775 195 389 0
2019-03-21 11:50:29 GMT 48.328018 9.155587 30,900 197 424 0
2019-03-21 11:50:18 GMT 48.343475 9.163610 31,000 198 365 0
2019-03-21 11:50:11 GMT 48.346992 9.164495 31,000 198 365 0
2019-03-21 11:49:59 GMT 48.366150 9.174522 31,000 198 405 0
2019-03-21 11:49:47 GMT 48.387466 9.185317 31,000 197 394 0
2019-03-21 11:49:37 GMT 48.404961 9.193023 31,000 198 378 0
2019-03-21 11:49:25 GMT 48.424747 9.203039 31,000 198 388 0
2019-03-21 11:49:15 GMT 48.449986 9.215722 31,000 198 378 0
2019-03-21 11:49:08 GMT 48.462509 9.222806 31,000 198 378 0
2019-03-21 11:48:59 GMT 48.477592 9.230395 31,000 199 392 0
2019-03-21 11:48:46 GMT 48.499519 9.241670 31,000 197 374 0
2019-03-21 11:48:32 GMT 48.514156 9.246820 31,000 198 382 0
2019-03-21 11:48:19 GMT 48.562317 9.272533 31,000 197 392 0
2019-03-21 11:48:09 GMT 48.562317 9.272533 31,000 199 382 0
2019-03-21 11:47:58 GMT 48.572491 9.275494 31,000 198 371 0
2019-03-21 11:47:48 GMT 48.615479 9.294795 31,000 196 362 0
2019-03-21 11:47:40 GMT 48.615479 9.294795 31,000 197 394 0
2019-03-21 11:47:27 GMT 48.639919 9.304191 31,000 196 399 0
2019-03-21 11:47:18 GMT 48.654816 9.311780 31,000 203 401 0
2019-03-21 11:47:01 GMT 48.688255 9.330495 31,000 199 380 0
2019-03-21 11:46:49 GMT 48.688255 9.330495 31,000 202 400 0
2019-03-21 11:46:39 GMT 48.715008 9.353196 31,000 207 342 0
2019-03-21 11:46:28 GMT 48.732281 9.367435 31,000 211 370 0
2019-03-21 11:46:23 GMT 48.740192 9.373434 31,000 210 376 0
2019-03-21 11:46:08 GMT 48.762676 9.393021 31,000 213 393 0
2019-03-21 11:45:56 GMT 48.785210 9.416295 31,025 213 393 0
2019-03-21 11:45:48 GMT 48.794289 9.424969 31,025 213 394 0
2019-03-21 11:45:35 GMT 48.813885 9.444267 31,000 211 390 64
2019-03-21 11:45:23 GMT 48.845306 9.474190 31,000 211 390 64
2019-03-21 11:45:14 GMT 48.845306 9.474190 31,000 211 390 64
2019-03-21 11:45:06 GMT 48.857693 9.485682 31,000 211 390 64
2019-03-21 11:45:01 GMT 48.865417 9.492621 31,000 212 395 0
2019-03-21 11:44:46 GMT 48.888882 9.513365 31,000 211 390 0
2019-03-21 11:44:40 GMT 48.899494 9.523123 31,000 212 389 64
2019-03-21 11:44:23 GMT 48.927521 9.548565 31,000 210 363 0
2019-03-21 11:44:16 GMT 48.956707 9.574874 31,000 212 406 0
2019-03-21 11:44:02 GMT 48.956707 9.574874 31,000 211 373 0
2019-03-21 11:43:51 GMT 48.966431 9.583722 31,000 211 360 0
2019-03-21 11:43:41 GMT 48.980618 9.597036 31,000 211 376 0
2019-03-21 11:43:29 GMT 49.000477 9.615204 31,000 212 369 0
2019-03-21 11:43:19 GMT 49.014935 9.629169 31,000 210 395 0
2019-03-21 11:43:08 GMT 49.032902 9.645613 31,000 211 399 0
2019-03-21 11:42:56 GMT 49.062103 9.671004 31,000 210 372 0
2019-03-21 11:42:38 GMT 49.088917 9.694712 31,000 209 407 0
2019-03-21 11:42:31 GMT 49.101208 9.705626 31,000 209 390 0
2019-03-21 11:42:17 GMT 49.112667 9.717178 31,000 210 404 0
2019-03-21 11:42:07 GMT 49.136818 9.739235 31,000 212 399 0
2019-03-21 11:41:54 GMT 49.157906 9.760268 31,000 209 377 0
2019-03-21 11:41:47 GMT 49.172382 9.773568 31,000 212 420 0
2019-03-21 11:41:36 GMT 49.178860 9.777137 31,000 212 418 -300
2019-03-21 11:41:25 GMT 49.206509 9.803997 31,000 205 457 -300
2019-03-21 11:41:19 GMT 49.213394 9.810285 31,000 205 457 -300
2019-03-21 11:41:14 GMT 49.223080 9.819464 31,000 205 457 -300
2019-03-21 11:41:04 GMT 49.244400 9.841726 31,000 205 457 -300
2019-03-21 11:40:59 GMT 49.244400 9.841726 31,000 205 457 -300
2019-03-21 11:40:44 GMT 49.270283 9.866229 31,000 213 450 0
2019-03-21 11:40:31 GMT 49.302589 9.898103 31,000 205 457 -300
2019-03-21 11:40:24 GMT 49.302589 9.898103 31,000 205 457 -300
2019-03-21 11:40:16 GMT 49.318604 9.912993 31,000 205 457 -300
2019-03-21 11:40:08 GMT 49.345184 9.939591 31,000 205 457 -300
2019-03-21 11:40:00 GMT 49.345184 9.939591 31,000 205 457 -300
2019-03-21 11:39:48 GMT 49.365810 9.959034 31,000 199 463 0
2019-03-21 11:39:40 GMT 49.400818 9.990981 31,000 199 463 0
2019-03-21 11:39:28 GMT 49.400818 9.990981 31,000 212 442 64
2019-03-21 11:39:20 GMT 49.412594 10.001895 31,000 212 442 64
2019-03-21 11:39:07 GMT 49.435497 10.023911 31,000 212 442 64
2019-03-21 11:38:56 GMT 49.454117 10.042024 31,000 212 442 64
2019-03-21 11:38:41 GMT 49.478977 10.066891 31,000 212 442 64
2019-03-21 11:38:35 GMT 49.492802 10.079808 31,000 213 453 64
2019-03-21 11:38:21 GMT 49.516685 10.103933 31,000 213 453 64
2019-03-21 11:38:10 GMT 49.534096 10.120635 31,000 213 453 64
2019-03-21 11:37:59 GMT 49.553322 10.138896 31,000 213 453 64
2019-03-21 11:37:46 GMT 49.573898 10.158716 31,000 213 453 64
2019-03-21 11:37:39 GMT 49.602016 10.184400 31,000 213 453 64
2019-03-21 11:37:32 GMT 49.602016 10.184400 31,000 213 453 64
2019-03-21 11:37:19 GMT 49.623287 10.204220 31,000 213 453 64
2019-03-21 11:37:14 GMT 49.633995 10.214464 31,000 213 453 64
2019-03-21 11:37:03 GMT 49.651501 10.231835 31,000 213 453 64
2019-03-21 11:36:53 GMT 49.670818 10.249799 31,000 213 453 64
2019-03-21 11:36:40 GMT 49.689999 10.268728 31,000 213 476 0
2019-03-21 11:36:27 GMT 49.716579 10.294264 31,000 212 451 64
2019-03-21 11:36:22 GMT 49.723515 10.300796 31,000 212 451 64
2019-03-21 11:36:12 GMT 49.741810 10.318612 31,000 212 451 64
2019-03-21 11:36:00 GMT 49.764713 10.341178 31,000 212 451 64
2019-03-21 11:35:47 GMT 49.785896 10.362334 31,000 212 451 64
2019-03-21 11:35:41 GMT 49.796604 10.372504 31,000 212 451 64
2019-03-21 11:35:28 GMT 49.820019 10.392992 31,000 212 456 128
2019-03-21 11:35:14 GMT 49.845390 10.418380 31,000 213 479 64
2019-03-21 11:35:08 GMT 49.854095 10.426619 31,000 213 479 64
2019-03-21 11:34:56 GMT 49.876022 10.447478 31,000 213 479 64
2019-03-21 11:34:48 GMT 49.889290 10.460172 31,000 213 479 64
2019-03-21 11:34:35 GMT 49.913494 10.484001 31,000 213 479 64
2019-03-21 11:34:31 GMT 49.922993 10.493502 31,000 213 479 64
2019-03-21 11:34:22 GMT 49.939892 10.509982 31,000 213 479 64
2019-03-21 11:34:18 GMT 49.947617 10.517479 31,000 213 479 64
2019-03-21 11:34:13 GMT 49.956604 10.527575 31,000 213 477 0
2019-03-21 11:34:04 GMT 49.971500 10.541901 31,000 213 478 0
2019-03-21 11:33:57 GMT 49.986488 10.557787 31,000 213 478 0
2019-03-21 11:33:51 GMT 49.999477 10.570481 31,000 213 478 0
2019-03-21 11:33:45 GMT 50.007019 10.577830 31,000 213 478 0
2019-03-21 11:33:39 GMT 50.023594 10.594309 31,000 213 478 0
2019-03-21 11:33:31 GMT 50.045612 10.616579 31,000 212 481 0
2019-03-21 11:33:25 GMT 50.045612 10.616579 31,000 212 481 0
2019-03-21 11:33:19 GMT 50.056690 10.627565 31,000 212 481 0
2019-03-21 11:33:13 GMT 50.069679 10.640630 31,000 212 481 0
2019-03-21 11:33:06 GMT 50.080990 10.651691 31,000 213 477 64
2019-03-21 11:33:00 GMT 50.092209 10.662825 31,000 213 477 64
2019-03-21 11:32:52 GMT 50.107388 10.677523 31,000 213 477 64
2019-03-21 11:32:47 GMT 50.128613 10.696824 31,000 213 477 64
2019-03-21 11:32:40 GMT 50.128613 10.696824 31,000 213 477 64
2019-03-21 11:32:34 GMT 50.140018 10.707810 31,000 213 477 64
2019-03-21 11:32:27 GMT 50.155102 10.722879 31,000 213 474 64
2019-03-21 11:32:20 GMT 50.166180 10.734311 31,000 213 474 64
2019-03-21 11:32:11 GMT 50.184803 10.753091 31,000 213 474 64
2019-03-21 11:32:05 GMT 50.198025 10.765785 31,000 213 474 64
2019-03-21 11:31:57 GMT 50.211010 10.778701 31,000 213 474 64
2019-03-21 11:31:48 GMT 50.225719 10.793102 31,000 213 475 0
2019-03-21 11:31:42 GMT 50.240990 10.807503 31,000 213 475 0
2019-03-21 11:31:31 GMT 50.270504 10.837122 31,000 213 475 0
2019-03-21 11:31:21 GMT 50.279907 10.846698 31,000 213 474 0
2019-03-21 11:31:15 GMT 50.288895 10.855903 31,000 213 474 0
2019-03-21 11:31:08 GMT 50.299694 10.866072 31,000 213 474 64
2019-03-21 11:30:56 GMT 50.323620 10.890124 31,000 213 474 64
2019-03-21 11:30:43 GMT 50.345779 10.913432 31,000 213 474 64
2019-03-21 11:30:35 GMT 50.364914 10.934217 31,000 213 474 64
2019-03-21 11:30:21 GMT 50.389214 10.958565 31,000 213 474 64
2019-03-21 11:30:16 GMT 50.397919 10.968512 31,000 213 474 64
2019-03-21 11:30:10 GMT 50.407322 10.977866 31,025 213 474 64
2019-03-21 11:30:04 GMT 50.418678 10.989817 31,000 213 472 128
2019-03-21 11:29:58 GMT 50.444702 11.013794 31,000 213 472 128
2019-03-21 11:29:51 GMT 50.444702 11.013794 31,000 213 472 128
2019-03-21 11:29:45 GMT 50.478779 11.049128 31,000 213 476 0
2019-03-21 11:29:31 GMT 50.478779 11.049128 31,000 213 476 0
2019-03-21 11:29:22 GMT 50.523422 11.094113 31,000 212 478 0
2019-03-21 11:29:07 GMT 50.523422 11.094113 31,000 212 478 0
2019-03-21 11:29:02 GMT 50.550377 11.118906 31,000 214 480 0
2019-03-21 11:28:54 GMT 50.550377 11.118906 31,000 214 480 0
2019-03-21 11:28:48 GMT 50.561783 11.129299 31,000 214 480 0
2019-03-21 11:28:42 GMT 50.572906 11.139617 31,000 214 480 0
2019-03-21 11:28:35 GMT 50.589390 11.156319 31,000 214 480 0
2019-03-21 11:28:27 GMT 50.601910 11.169681 31,000 211 471 256
2019-03-21 11:28:20 GMT 50.622299 11.191208 31,000 211 471 256
2019-03-21 11:28:15 GMT 50.622299 11.191208 31,000 211 471 256
2019-03-21 11:28:10 GMT 50.631287 11.201081 31,000 211 471 256
2019-03-21 11:28:05 GMT 50.638222 11.209395 31,000 211 471 256
2019-03-21 11:27:58 GMT 50.664196 11.236193 31,000 211 471 256
2019-03-21 11:27:53 GMT 50.664196 11.236193 31,000 211 471 256
2019-03-21 11:27:47 GMT 50.671413 11.245175 31,000 211 471 256
2019-03-21 11:27:39 GMT 50.707909 11.291122 31,000 206 470 128
2019-03-21 11:27:26 GMT 50.732395 11.312332 31,000 201 464 0
2019-03-21 11:27:14 GMT 50.732395 11.312332 31,000 201 464 0
2019-03-21 11:27:09 GMT 50.742683 11.321335 31,000 201 464 0
2019-03-21 11:26:56 GMT 50.766983 11.342468 31,000 199 475 64
2019-03-21 11:26:50 GMT 50.778297 11.350174 31,000 199 475 64
2019-03-21 11:26:43 GMT 50.794590 11.360168 31,000 199 478 64
2019-03-21 11:26:37 GMT 50.804691 11.365967 31,000 199 478 64
2019-03-21 11:26:32 GMT 50.819309 11.373672 31,000 199 477 64
2019-03-21 11:26:27 GMT 50.831783 11.380692 31,000 199 477 64
2019-03-21 11:26:18 GMT 50.846588 11.388626 31,000 199 476 64
2019-03-21 11:26:13 GMT 50.859016 11.395416 31,000 199 476 64
2019-03-21 11:26:08 GMT 50.869400 11.400986 31,000 199 476 64
2019-03-21 11:26:03 GMT 50.877686 11.405334 31,000 199 476 64
2019-03-21 11:25:57 GMT 50.888020 11.410675 31,000 199 476 64
2019-03-21 11:25:49 GMT 50.905010 11.419373 31,000 199 476 64
2019-03-21 11:25:43 GMT 50.921818 11.428299 31,000 199 476 64
2019-03-21 11:25:36 GMT 50.934292 11.435089 31,025 199 476 64
2019-03-21 11:25:28 GMT 50.951191 11.444397 31,000 199 472 64
2019-03-21 11:25:23 GMT 50.963806 11.450882 31,000 199 472 64
2019-03-21 11:25:14 GMT 50.978611 11.458817 31,000 199 472 64
2019-03-21 11:25:01 GMT 51.007893 11.474228 31,000 199 472 64
2019-03-21 11:24:46 GMT 51.036800 11.488876 31,000 199 472 64
2019-03-21 11:24:41 GMT 51.075581 11.508408 31,000 199 482 0
2019-03-21 11:24:28 GMT 51.075581 11.508408 31,000 199 482 0
2019-03-21 11:24:21 GMT 51.089592 11.515884 31,000 199 482 0
2019-03-21 11:24:16 GMT 51.102207 11.522522 31,000 199 482 0
2019-03-21 11:24:07 GMT 51.121479 11.533127 31,000 199 482 0
2019-03-21 11:24:00 GMT 51.132095 11.538620 31,000 199 482 0
2019-03-21 11:23:51 GMT 51.150391 11.549377 31,000 199 482 0
2019-03-21 11:23:45 GMT 51.166821 11.558533 31,000 199 482 0
2019-03-21 11:23:40 GMT 51.173477 11.561890 31,000 199 480 64
2019-03-21 11:23:27 GMT 51.201504 11.576538 31,000 199 480 64
2019-03-21 11:23:15 GMT 51.231201 11.592865 31,000 199 480 64
2019-03-21 11:23:08 GMT 51.243401 11.599503 31,000 199 480 64
2019-03-21 11:22:52 GMT 51.280594 11.619492 31,000 199 480 64
2019-03-21 11:22:40 GMT 51.301311 11.632233 31,000 199 480 64
2019-03-21 11:22:29 GMT 51.324680 11.646271 31,000 199 480 64
2019-03-21 11:22:17 GMT 51.350006 11.657791 31,000 199 480 64
2019-03-21 11:22:08 GMT 51.368999 11.668167 31,000 199 480 64
2019-03-21 11:22:02 GMT 51.381706 11.674728 31,000 199 480 64
2019-03-21 11:21:57 GMT 51.402424 11.682663 31,000 199 480 64
2019-03-21 11:21:51 GMT 51.402424 11.682663 31,000 199 480 64
2019-03-21 11:21:46 GMT 51.412292 11.688309 31,000 199 480 64
2019-03-21 11:21:40 GMT 51.426910 11.696777 31,000 199 480 64
2019-03-21 11:21:34 GMT 51.437290 11.701202 31,000 199 480 64
2019-03-21 11:21:23 GMT 51.462383 11.714630 31,000 199 480 64
2019-03-21 11:21:16 GMT 51.480907 11.725082 31,000 199 480 64
2019-03-21 11:21:11 GMT 51.489799 11.729889 31,000 199 480 64
2019-03-21 11:20:56 GMT 51.521782 11.748505 31,000 199 480 64
2019-03-21 11:20:49 GMT 51.534397 11.755066 31,000 199 481 64
2019-03-21 11:20:42 GMT 51.549389 11.763000 31,000 199 481 64
2019-03-21 11:20:36 GMT 51.559814 11.768723 31,000 199 481 64
2019-03-21 11:20:31 GMT 51.573410 11.776962 31,000 199 481 64
2019-03-21 11:20:26 GMT 51.579784 11.780396 31,000 199 481 64
2019-03-21 11:20:20 GMT 51.599010 11.790771 31,000 199 481 64
2019-03-21 11:20:06 GMT 51.630901 11.808624 31,000 199 464 64
2019-03-21 11:19:55 GMT 51.652313 11.819916 31,000 199 464 64
2019-03-21 11:19:48 GMT 51.663021 11.825714 31,000 199 464 64
2019-03-21 11:19:36 GMT 51.686111 11.839218 31,000 199 464 64
2019-03-21 11:19:29 GMT 51.702404 11.847229 31,000 199 464 64
2019-03-21 11:19:18 GMT 51.725121 11.859512 31,000 199 464 64
2019-03-21 11:19:05 GMT 51.752495 11.875763 31,000 200 451 64
2019-03-21 11:18:54 GMT 51.774609 11.886902 31,000 200 451 64
2019-03-21 11:18:48 GMT 51.787315 11.892319 31,000 200 451 64
2019-03-21 11:18:38 GMT 51.811199 11.904373 31,000 200 451 64
2019-03-21 11:18:25 GMT 51.832378 11.916122 31,000 200 423 -1920
2019-03-21 11:18:16 GMT 51.851604 11.926575 31,000 200 423 -1920
2019-03-21 11:18:03 GMT 52.160896 12.101990 31,000 200 423 -1920
2019-03-21 11:15:41 GMT 52.160896 12.101990 34,025 200 423 -1920
2019-03-21 11:15:35 GMT 52.170021 12.106306 34,300 200 423 -1920
2019-03-21 11:15:21 GMT 52.198185 12.119176 34,575 200 423 -1920
2019-03-21 11:15:15 GMT 52.211594 12.127101 34,875 200 423 -1920
2019-03-21 11:15:00 GMT 52.239201 12.143581 34,950 200 423 -1920
2019-03-21 11:14:52 GMT 52.254189 12.151585 35,000 200 423 -1920
2019-03-21 11:14:40 GMT 52.276814 12.164376 35,050 200 423 -1920
2019-03-21 11:14:34 GMT 52.288078 12.170497 35,150 200 423 -1920
2019-03-21 11:14:22 GMT 52.309120 12.182661 35,300 200 423 -1920
2019-03-21 11:14:10 GMT 52.335514 12.197335 35,475 200 423 -1920
2019-03-21 11:14:03 GMT 52.344780 12.202436 35,650 199 431 -1728
2019-03-21 11:13:50 GMT 52.370708 12.217032 35,950 199 431 -1728
2019-03-21 11:13:37 GMT 52.395008 12.230608 36,200 199 431 -1728
2019-03-21 11:13:31 GMT 52.406090 12.236965 36,525 199 431 -1728
2019-03-21 11:13:22 GMT 52.423405 12.246695 36,950 199 431 -1728
2019-03-21 11:13:07 GMT 52.451618 12.262469 37,275 199 431 -1728
2019-03-21 11:13:02 GMT 52.460693 12.267177 37,550 199 431 -1728
2019-03-21 11:12:47 GMT 52.485878 12.281381 37,950 199 431 -1728
2019-03-21 11:12:41 GMT 52.498680 12.288993 38,375 199 431 -1728
2019-03-21 11:12:26 GMT 52.537182 12.312535 38,675 199 431 -1728
2019-03-21 11:12:20 GMT 52.537182 12.312535 39,125 199 431 -1728
2019-03-21 11:12:12 GMT 52.551098 12.320696 39,350 199 431 -1728
2019-03-21 11:11:57 GMT 52.576797 12.334272 39,725 199 431 -1728
2019-03-21 11:11:50 GMT 52.589878 12.341963 40,100 200 453 0
2019-03-21 11:11:37 GMT 52.612782 12.354989 40,400 200 453 0
2019-03-21 11:11:29 GMT 52.629913 12.364563 40,675 200 453 0
2019-03-21 11:11:17 GMT 52.654213 12.378610 41,100 200 453 0
2019-03-21 11:11:07 GMT 52.676277 12.390616 41,250 200 453 0
2019-03-21 11:11:00 GMT 52.681492 12.392892 41,500 200 453 0
2019-03-21 11:10:45 GMT 52.714825 12.412589 41,725 200 453 0
2019-03-21 11:10:40 GMT 52.727020 12.419338 42,000 200 453 0
2019-03-21 11:10:33 GMT 52.741077 12.427028 42,000 200 453 0
2019-03-21 11:10:26 GMT 52.755604 12.434405 42,250 200 453 0
2019-03-21 11:10:13 GMT 52.779018 12.446097 42,525 200 453 0
2019-03-21 11:10:08 GMT 52.792984 12.454572 42,675 200 453 0
2019-03-21 11:10:00 GMT 52.804996 12.461635 42,725 200 453 0
2019-03-21 11:09:55 GMT 52.815422 12.467364 42,850 200 453 0
2019-03-21 11:09:49 GMT 52.829716 12.476074 42,925 200 453 0
2019-03-21 11:09:42 GMT 52.845589 12.485883 42,950 200 453 0
2019-03-21 11:09:37 GMT 52.851780 12.489886 43,000 200 453 0
2019-03-21 11:09:32 GMT 52.863186 12.497105 43,000 200 453 0
2019-03-21 11:09:24 GMT 52.880409 12.507307 43,000 199 463 0
2019-03-21 11:09:09 GMT 52.904896 12.522531 43,000 199 463 0
2019-03-21 11:09:02 GMT 52.923378 12.532026 43,000 199 463 0
2019-03-21 11:08:51 GMT 52.943581 12.543405 43,000 199 463 0
2019-03-21 11:08:40 GMT 52.964298 12.555333 43,000 199 463 0
2019-03-21 11:08:32 GMT 52.983105 12.566476 43,000 199 463 0
2019-03-21 11:07:51 GMT 53.067177 12.615601 43,000 199 463 0
2019-03-21 11:06:51 GMT 53.176224 12.679303 43,000 199 463 0
2019-03-21 11:06:22 GMT 53.234604 12.713882 43,000 199 462 0
2019-03-21 11:06:12 GMT 53.254864 12.725655 43,000 199 462 0
2019-03-21 11:05:57 GMT 53.286713 12.744241 43,000 199 413 0
2019-03-21 11:05:44 GMT 53.324192 12.765790 43,000 200 452 0
2019-03-21 11:05:30 GMT 53.352123 12.782997 43,000 200 452 0
2019-03-21 11:05:25 GMT 53.361294 12.788086 43,000 200 452 0
2019-03-21 11:05:10 GMT 53.391182 12.806262 43,000 200 452 0
2019-03-21 11:05:04 GMT 53.404400 12.813290 43,000 200 452 0
2019-03-21 11:04:51 GMT 53.430099 12.828315 43,000 200 452 0
2019-03-21 11:04:46 GMT 53.440201 12.833970 43,000 200 452 0
2019-03-21 11:04:34 GMT 53.873508 13.094815 43,000 200 452 0
2019-03-21 11:01:10 GMT 53.873508 13.094815 43,000 200 452 192
2019-03-21 11:01:05 GMT 53.904419 13.112183 43,000 200 452 192
2019-03-21 11:00:53 GMT 53.918476 13.120584 43,000 200 452 192
2019-03-21 11:00:47 GMT 53.918476 13.120584 43,000 200 452 192
2019-03-21 11:00:30 GMT 53.953018 13.141587 43,000 200 452 192
2019-03-21 11:00:23 GMT 53.968895 13.151604 43,000 200 452 192
2019-03-21 11:00:14 GMT 53.984489 13.160894 43,000 200 452 192
2019-03-21 11:00:00 GMT 54.013908 13.180039 43,000 200 452 192
2019-03-21 10:59:52 GMT 54.027691 13.188521 43,000 200 452 192
2019-03-21 10:59:45 GMT 54.041283 13.197004 43,000 200 452 192
2019-03-21 10:59:34 GMT 54.066608 13.212998 43,000
2019-03-21 10:59:19 GMT 54.102314 13.234567 43,000
2019-03-21 10:59:14 GMT 54.102314 13.234567 43,000
2019-03-21 10:59:00 GMT 54.129684 13.251612 43,000
2019-03-21 10:58:52 GMT 54.147282 13.262518 43,000
2019-03-21 10:58:37 GMT 54.174793 13.279482 43,000
2019-03-21 10:58:31 GMT 54.186806 13.286429 43,000
2019-03-21 10:58:19 GMT 54.215481 13.302505 43,000
2019-03-21 10:58:08 GMT 54.235313 13.314218 43,000

Making use of Plane Finder data

You are free to use the raw flight data, aircraft information and images provided in this report for your own purposes provided the data is correctly attributed to Plane Finder. We ask that you please credit Plane Finder and link to planefinder.net in close proximity to the content.

Optionally one of the following logos (no smaller then 150x24px) can be used and must link to planefinder.net

Embedding the Plane Finder map

You are welcome to embed the Plane Finder playback map on your website to offer visitors a more interactive experience. We suggest using the following HTML code:

<iframe src="//planefinder.net/data/report/ETI21B-SE-RMO-7700-squawk-2019-03-21/map" width="800" height="600" seamless="seamless"></iframe>

Where our data comes from

Plane Finder has a global network of data feeds and antenna radars that receive data broadcast directly from aircraft. The primary technologies used are ADS-B and MLAT. We also show feeds from the FAA and a FLARM glider feed.

Click here to find out more about the Plane Finder network.

How we collect our data